createdAt,value
2022-09-13T00:00:10.549Z,78.05
2022-09-13T00:00:42.794Z,78.40
2022-09-13T00:01:15.612Z,79.03
2022-09-13T00:01:47.669Z,78.18
2022-09-13T00:02:19.410Z,80.10
2022-09-13T00:02:52.707Z,78.63
2022-09-13T00:03:24.737Z,77.95
2022-09-13T00:03:56.331Z,79.20
2022-09-13T00:04:28.916Z,79.20
2022-09-13T00:05:00.555Z,78.20
2022-09-13T00:05:32.146Z,78.60
2022-09-13T00:06:11.647Z,78.88
2022-09-13T00:06:43.260Z,78.20
2022-09-13T00:07:14.856Z,79.28
2022-09-13T00:07:47.452Z,78.53
2022-09-13T00:08:19.617Z,77.30
2022-09-13T00:08:51.327Z,78.82
2022-09-13T00:09:23.898Z,77.82
2022-09-13T00:09:55.484Z,78.13
2022-09-13T00:10:27.231Z,78.82
2022-09-13T00:10:59.796Z,78.25
2022-09-13T00:11:31.515Z,78.75
2022-09-13T00:12:03.247Z,78.95
2022-09-13T00:12:35.887Z,79.68
2022-09-13T00:13:08.655Z,79.45
2022-09-13T00:13:41.999Z,80.32
2022-09-13T00:14:14.563Z,78.60
2022-09-13T00:14:46.384Z,78.35
2022-09-13T00:15:18.458Z,78.40
2022-09-13T00:15:51.749Z,78.13
2022-09-13T00:16:24.888Z,79.70
2022-09-13T00:16:56.572Z,79.07
2022-09-13T00:17:29.451Z,78.53
2022-09-13T00:18:01.057Z,78.28
2022-09-13T00:18:33.612Z,78.60
2022-09-13T00:19:06.234Z,79.03
2022-09-13T00:19:37.885Z,77.60
2022-09-13T00:20:09.756Z,78.32
2022-09-13T00:20:41.381Z,78.68
2022-09-13T00:21:15.419Z,79.95
2022-09-13T00:21:47.091Z,78.05
2022-09-13T00:22:18.930Z,78.63
2022-09-13T00:22:51.596Z,79.72
2022-09-13T00:23:23.239Z,78.07
2022-09-13T00:23:55.590Z,78.78
2022-09-13T00:24:28.204Z,78.40
2022-09-13T00:24:59.821Z,77.03
2022-09-13T00:25:31.542Z,78.63
2022-09-13T00:26:05.412Z,78.20
2022-09-13T00:26:37.044Z,79.47
2022-09-13T00:27:08.802Z,81.35
2022-09-13T00:27:41.454Z,78.10
2022-09-13T00:28:13.021Z,79.00
2022-09-13T00:28:48.857Z,79.80
2022-09-13T00:29:21.558Z,79.00
2022-09-13T00:29:53.117Z,79.10
2022-09-13T00:30:24.723Z,77.90
2022-09-13T00:31:00.340Z,79.10
2022-09-13T00:31:32.113Z,78.00
2022-09-13T00:32:04.950Z,78.13
2022-09-13T00:32:36.773Z,78.78
2022-09-13T00:33:08.889Z,80.47
2022-09-13T00:33:41.594Z,78.40
2022-09-13T00:34:13.177Z,78.70
2022-09-13T00:34:44.832Z,78.53
2022-09-13T00:35:17.566Z,79.20
2022-09-13T00:35:49.182Z,79.97
2022-09-13T00:36:20.738Z,80.53
2022-09-13T00:36:53.445Z,80.22
2022-09-13T00:37:25.097Z,78.63
2022-09-13T00:37:58.874Z,78.93
2022-09-13T00:38:30.490Z,79.63
2022-09-13T00:39:03.079Z,78.28
2022-09-13T00:39:34.851Z,78.75
2022-09-13T00:40:07.532Z,79.85
2022-09-13T00:40:40.221Z,78.32
2022-09-13T00:41:13.521Z,79.43
2022-09-13T00:41:45.147Z,79.07
2022-09-13T00:42:17.749Z,80.10
2022-09-13T00:42:49.383Z,79.00
2022-09-13T00:43:22.375Z,79.30
2022-09-13T00:43:57.383Z,78.95
2022-09-13T00:44:50.385Z,79.30
2022-09-13T00:45:22.092Z,79.50
2022-09-13T00:45:54.766Z,78.40
2022-09-13T00:46:28.709Z,80.85
2022-09-13T00:47:00.953Z,79.55
2022-09-13T00:47:36.416Z,78.15
2022-09-13T00:48:08.729Z,77.70
2022-09-13T00:48:40.720Z,77.72
2022-09-13T00:49:14.994Z,78.45
2022-09-13T00:49:47.211Z,79.20
2022-09-13T00:50:20.353Z,77.53
2022-09-13T00:50:54.283Z,78.70
2022-09-13T00:51:26.377Z,78.13
2022-09-13T00:52:03.743Z,78.25
2022-09-13T00:52:36.380Z,79.18
2022-09-13T00:53:10.578Z,77.68
2022-09-13T00:53:43.795Z,78.30
2022-09-13T00:54:16.137Z,78.15
2022-09-13T00:54:50.473Z,78.60
2022-09-13T00:55:25.763Z,77.57
2022-09-13T00:55:58.701Z,79.22
2022-09-13T00:56:33.215Z,77.70
2022-09-13T00:57:05.409Z,78.38
2022-09-13T00:57:37.121Z,78.43
2022-09-13T00:58:10.153Z,78.13
2022-09-13T00:58:45.298Z,77.90
2022-09-13T00:59:22.524Z,78.10
2022-09-13T00:59:57.065Z,79.45
2022-09-13T01:00:29.707Z,78.38
2022-09-13T01:01:02.478Z,78.35
2022-09-13T01:01:37.829Z,77.10
2022-09-13T01:02:10.629Z,77.78
2022-09-13T01:02:45.153Z,77.88
2022-09-13T01:03:17.886Z,77.70
2022-09-13T01:03:50.843Z,78.13
2022-09-13T01:04:24.553Z,77.35
2022-09-13T01:04:56.442Z,77.20
2022-09-13T01:05:31.514Z,78.90
2022-09-13T01:06:05.164Z,77.63
2022-09-13T01:06:38.814Z,77.60
2022-09-13T01:07:12.383Z,78.95
2022-09-13T01:07:44.079Z,77.32
2022-09-13T01:08:22.984Z,78.20
2022-09-13T01:08:55.131Z,78.40
2022-09-13T01:09:27.263Z,78.18
2022-09-13T01:09:59.975Z,76.53
2022-09-13T01:10:31.790Z,77.78
2022-09-13T01:11:04.549Z,77.57
2022-09-13T01:11:41.909Z,78.18
2022-09-13T01:12:18.682Z,78.38
2022-09-13T01:12:53.489Z,77.72
2022-09-13T01:13:27.541Z,77.85
2022-09-13T01:13:59.283Z,77.00
2022-09-13T01:14:32.899Z,78.97
2022-09-13T01:15:06.379Z,77.07
2022-09-13T01:15:38.064Z,77.50
2022-09-13T01:16:09.822Z,76.57
2022-09-13T01:16:47.157Z,75.97
2022-09-13T01:17:19.755Z,77.35
2022-09-13T01:17:52.734Z,75.93
2022-09-13T01:18:25.440Z,76.90
2022-09-13T01:18:57.025Z,76.72
2022-09-13T01:19:28.622Z,75.78
2022-09-13T01:20:01.889Z,78.88
2022-09-13T01:20:49.113Z,76.80
2022-09-13T01:21:34.708Z,76.25
2022-09-13T01:22:22.223Z,77.25
2022-09-13T01:23:11.757Z,76.53
2022-09-13T01:23:57.780Z,76.75
2022-09-13T01:24:37.727Z,75.68
2022-09-13T01:25:28.217Z,77.68
2022-09-13T01:26:15.705Z,76.40
2022-09-13T01:27:00.237Z,75.88
2022-09-13T01:27:36.000Z,76.25
2022-09-13T01:28:23.881Z,78.28
2022-09-13T01:29:05.418Z,76.70
2022-09-13T01:29:50.331Z,76.43
2022-09-13T01:30:25.117Z,75.05
2022-09-13T01:30:58.741Z,75.95
2022-09-13T01:31:35.502Z,76.55
2022-09-13T01:32:11.778Z,75.93
2022-09-13T01:32:59.175Z,77.65
2022-09-13T01:33:51.276Z,76.65
2022-09-13T01:34:29.489Z,75.70
2022-09-13T01:35:06.714Z,75.35
2022-09-13T01:35:43.604Z,75.22
2022-09-13T01:36:34.439Z,75.65
2022-09-13T01:37:26.129Z,76.10
2022-09-13T01:38:00.137Z,76.75
2022-09-13T01:38:41.487Z,75.45
2022-09-13T01:39:14.887Z,75.63
2022-09-13T01:39:55.560Z,75.63
2022-09-13T01:40:37.117Z,75.35
2022-09-13T01:41:15.708Z,75.00
2022-09-13T01:42:00.293Z,75.45
2022-09-13T01:42:37.061Z,77.00
2022-09-13T01:43:16.576Z,75.25
2022-09-13T01:43:53.821Z,74.55
2022-09-13T01:44:30.071Z,76.00
2022-09-13T01:45:09.419Z,76.15
2022-09-13T01:45:49.507Z,75.20
2022-09-13T01:46:25.212Z,76.47
2022-09-13T01:47:02.259Z,76.25
2022-09-13T01:47:38.182Z,75.25
2022-09-13T01:48:16.256Z,75.07
2022-09-13T01:48:54.384Z,74.88
2022-09-13T01:49:31.874Z,75.93
2022-09-13T01:50:12.666Z,76.38
2022-09-13T01:50:46.204Z,74.68
2022-09-13T01:51:21.088Z,74.47
2022-09-13T01:51:59.046Z,75.50
2022-09-13T01:52:32.400Z,75.72
2022-09-13T01:53:08.460Z,74.65
2022-09-13T01:53:42.414Z,75.97
2022-09-13T01:54:17.220Z,74.15
2022-09-13T01:54:54.777Z,75.10
2022-09-13T01:55:30.755Z,74.82
2022-09-13T01:56:05.418Z,75.47
2022-09-13T01:56:39.752Z,76.22
2022-09-13T01:57:14.272Z,75.65
2022-09-13T01:57:49.288Z,74.97
2022-09-13T01:58:23.823Z,76.05
2022-09-13T01:58:56.778Z,74.90
2022-09-13T01:59:33.589Z,75.30
2022-09-13T02:00:08.506Z,75.65
2022-09-13T02:00:51.204Z,75.05
2022-09-13T02:01:24.596Z,74.35
2022-09-13T02:02:01.448Z,74.43
2022-09-13T02:02:35.860Z,74.15
2022-09-13T02:03:10.725Z,75.40
2022-09-13T02:03:45.972Z,74.65
2022-09-13T02:04:20.993Z,74.35
2022-09-13T02:04:55.059Z,74.30
2022-09-13T02:05:30.375Z,74.68
2022-09-13T02:06:05.441Z,74.32
2022-09-13T02:06:39.954Z,75.80
2022-09-13T02:07:14.668Z,74.57
2022-09-13T02:07:50.200Z,75.53
2022-09-13T02:08:24.984Z,74.45
2022-09-13T02:09:00.498Z,76.78
2022-09-13T02:09:34.445Z,75.15
2022-09-13T02:10:07.483Z,74.63
2022-09-13T02:10:42.749Z,74.88
2022-09-13T02:11:16.311Z,76.22
2022-09-13T02:11:50.292Z,74.93
2022-09-13T02:12:24.392Z,75.32
2022-09-13T02:12:57.932Z,75.10
2022-09-13T02:13:33.495Z,76.15
2022-09-13T02:14:08.074Z,75.30
2022-09-13T02:14:41.004Z,74.50
2022-09-13T02:15:15.089Z,74.80
2022-09-13T02:15:50.264Z,74.53
2022-09-13T02:16:26.636Z,75.18
2022-09-13T02:17:01.406Z,74.90
2022-09-13T02:17:37.608Z,74.53
2022-09-13T02:18:11.078Z,73.65
2022-09-13T02:18:43.983Z,75.57
2022-09-13T02:19:19.036Z,75.22
2022-09-13T02:19:53.998Z,74.68
2022-09-13T02:20:28.533Z,74.78
2022-09-13T02:21:02.438Z,74.45
2022-09-13T02:21:39.192Z,74.40
2022-09-13T02:22:13.599Z,75.28
2022-09-13T02:22:48.266Z,75.65
2022-09-13T02:23:23.808Z,74.63
2022-09-13T02:23:56.532Z,73.70
2022-09-13T02:24:29.781Z,73.90
2022-09-13T02:25:04.162Z,75.05
2022-09-13T02:25:37.186Z,74.90
2022-09-13T02:26:10.897Z,74.85
2022-09-13T02:26:45.621Z,75.25
2022-09-13T02:27:19.268Z,75.05
2022-09-13T02:27:52.643Z,73.32
2022-09-13T02:28:29.693Z,74.47
2022-09-13T02:29:03.781Z,75.25
2022-09-13T02:29:37.248Z,74.33
2022-09-13T02:30:11.235Z,74.25
2022-09-13T02:30:46.691Z,73.55
2022-09-13T02:31:24.107Z,75.50
2022-09-13T02:31:58.145Z,74.55
2022-09-13T02:32:32.721Z,74.38
2022-09-13T02:33:08.602Z,74.85
2022-09-13T02:33:42.497Z,74.80
2022-09-13T02:34:18.315Z,73.75
2022-09-13T02:34:54.070Z,75.15
2022-09-13T02:35:27.783Z,75.18
2022-09-13T02:36:01.670Z,74.28
2022-09-13T02:36:37.149Z,74.28
2022-09-13T02:37:09.827Z,75.05
2022-09-13T02:37:43.076Z,75.55
2022-09-13T02:38:18.569Z,74.47
2022-09-13T02:38:52.005Z,75.20
2022-09-13T02:39:24.961Z,75.75
2022-09-13T02:39:59.776Z,74.93
2022-09-13T02:40:34.435Z,75.35
2022-09-13T02:41:09.967Z,75.88
2022-09-13T02:41:45.609Z,75.18
2022-09-13T02:42:18.649Z,75.05
2022-09-13T02:42:52.332Z,75.15
2022-09-13T02:43:27.951Z,75.85
2022-09-13T02:44:03.180Z,75.03
2022-09-13T02:44:37.708Z,74.45
2022-09-13T02:45:11.703Z,75.80
2022-09-13T02:45:47.666Z,75.38
2022-09-13T02:46:29.929Z,75.30
2022-09-13T02:47:08.020Z,75.13
2022-09-13T02:47:44.516Z,74.95
2022-09-13T02:48:20.758Z,75.65
2022-09-13T02:48:58.102Z,75.82
2022-09-13T02:49:55.306Z,75.68
2022-09-13T02:50:35.517Z,75.47
2022-09-13T02:51:08.450Z,75.53
2022-09-13T02:51:46.772Z,76.43
2022-09-13T02:52:23.467Z,75.07
2022-09-13T02:53:00.276Z,75.80
2022-09-13T02:53:36.963Z,77.50
2022-09-13T02:54:15.320Z,76.57
2022-09-13T02:54:56.115Z,76.13
2022-09-13T02:55:31.050Z,76.18
2022-09-13T02:56:07.730Z,75.75
2022-09-13T02:56:42.431Z,75.85
2022-09-13T02:57:15.412Z,77.20
2022-09-13T02:57:54.167Z,75.70
2022-09-13T02:58:27.395Z,75.15
2022-09-13T02:59:03.764Z,76.90
2022-09-13T02:59:36.814Z,75.13
2022-09-13T03:00:09.372Z,75.60
2022-09-13T03:00:41.382Z,76.22
2022-09-13T03:01:13.716Z,76.38
2022-09-13T03:01:48.798Z,76.43
2022-09-13T03:02:22.860Z,76.35
2022-09-13T03:02:56.294Z,77.30
2022-09-13T03:03:28.901Z,76.00
2022-09-13T03:04:00.591Z,76.57
2022-09-13T03:04:32.876Z,75.70
2022-09-13T03:05:05.680Z,76.05
2022-09-13T03:05:37.326Z,76.30
2022-09-13T03:06:08.954Z,77.47
2022-09-13T03:06:41.904Z,75.85
2022-09-13T03:07:14.222Z,75.60
2022-09-13T03:07:46.184Z,75.78
2022-09-13T03:08:19.398Z,76.28
2022-09-13T03:08:51.072Z,75.85
2022-09-13T03:09:23.594Z,76.60
2022-09-13T03:09:57.491Z,76.32
2022-09-13T03:10:31.614Z,76.40
2022-09-13T03:11:10.750Z,75.57
2022-09-13T03:11:54.401Z,75.80
2022-09-13T03:12:34.726Z,76.18
2022-09-13T03:13:14.698Z,75.97
2022-09-13T03:13:55.730Z,76.22
2022-09-13T03:14:34.519Z,77.45
2022-09-13T03:15:10.612Z,76.65
2022-09-13T03:15:50.908Z,76.35
2022-09-13T03:16:30.699Z,77.30
2022-09-13T03:17:11.631Z,76.22
2022-09-13T03:17:50.482Z,76.30
2022-09-13T03:18:30.014Z,76.82
2022-09-13T03:19:09.521Z,77.50
2022-09-13T03:19:54.342Z,76.57
2022-09-13T03:20:31.021Z,75.93
2022-09-13T03:21:08.074Z,76.57
2022-09-13T03:21:48.852Z,75.70
2022-09-13T03:22:26.986Z,76.10
2022-09-13T03:23:05.693Z,77.32
2022-09-13T03:23:46.548Z,75.43
2022-09-13T03:24:19.982Z,75.90
2022-09-13T03:24:55.737Z,75.55
2022-09-13T03:25:32.452Z,75.60
2022-09-13T03:26:13.451Z,75.43
2022-09-13T03:26:49.682Z,76.97
2022-09-13T03:27:31.664Z,76.38
2022-09-13T03:28:07.966Z,76.65
2022-09-13T03:28:44.032Z,75.25
2022-09-13T03:29:27.222Z,75.35
2022-09-13T03:30:02.377Z,75.60
2022-09-13T03:30:35.756Z,75.53
2022-09-13T03:31:09.006Z,75.20
2022-09-13T03:31:47.117Z,76.05
2022-09-13T03:32:24.951Z,75.57
2022-09-13T03:33:00.413Z,75.57
2022-09-13T03:33:37.019Z,75.57
2022-09-13T03:34:10.792Z,74.97
2022-09-13T03:34:48.087Z,74.78
2022-09-13T03:35:25.217Z,73.15
2022-09-13T03:36:02.132Z,74.97
2022-09-13T03:36:36.415Z,73.45
2022-09-13T03:37:10.841Z,72.25
2022-09-13T03:37:46.473Z,72.72
2022-09-13T03:38:20.932Z,72.30
2022-09-13T03:38:55.379Z,72.32
2022-09-13T03:39:31.238Z,71.95
2022-09-13T03:40:06.747Z,72.28
2022-09-13T03:40:42.169Z,71.80
2022-09-13T03:41:15.773Z,73.00
2022-09-13T03:41:51.060Z,71.80
2022-09-13T03:42:24.385Z,71.72
2022-09-13T03:43:00.018Z,72.72
2022-09-13T03:43:36.704Z,73.07
2022-09-13T03:44:10.282Z,72.50
2022-09-13T03:44:44.550Z,72.22
2022-09-13T03:45:18.792Z,72.68
2022-09-13T03:45:52.356Z,71.55
2022-09-13T03:46:26.463Z,72.95
2022-09-13T03:47:00.452Z,71.60
2022-09-13T03:47:36.835Z,72.65
2022-09-13T03:48:09.573Z,71.93
2022-09-13T03:48:42.709Z,72.13
2022-09-13T03:49:16.678Z,71.72
2022-09-13T03:49:49.042Z,72.72
2022-09-13T03:50:22.036Z,72.55
2022-09-13T03:50:55.663Z,71.35
2022-09-13T03:51:27.948Z,72.05
2022-09-13T03:52:00.406Z,73.80
2022-09-13T03:52:32.202Z,71.60
2022-09-13T03:53:07.347Z,72.97
2022-09-13T03:53:40.251Z,71.88
2022-09-13T03:54:14.746Z,72.00
2022-09-13T03:54:47.356Z,73.40
2022-09-13T03:55:20.384Z,72.65
2022-09-13T03:55:52.267Z,72.72
2022-09-13T03:56:23.856Z,72.07
2022-09-13T03:57:09.714Z,72.28
2022-09-13T03:57:41.492Z,72.25
2022-09-13T03:58:13.992Z,71.50
2022-09-13T03:58:47.125Z,71.68
2022-09-13T03:59:20.502Z,72.18
2022-09-13T03:59:53.410Z,72.22
2022-09-13T04:00:26.228Z,72.30
2022-09-13T04:00:58.105Z,71.75
2022-09-13T04:01:30.015Z,71.57
2022-09-13T04:02:02.735Z,70.93
2022-09-13T04:02:35.883Z,72.22
2022-09-13T04:03:07.616Z,71.22
2022-09-13T04:03:40.614Z,72.43
2022-09-13T04:04:12.267Z,72.10
2022-09-13T04:04:44.449Z,72.07
2022-09-13T04:05:16.066Z,73.30
2022-09-13T04:05:48.718Z,71.72
2022-09-13T04:06:20.293Z,72.30
2022-09-13T04:06:52.320Z,71.38
2022-09-13T04:07:24.985Z,72.05
2022-09-13T04:07:57.592Z,71.28
2022-09-13T04:08:29.286Z,71.03
2022-09-13T04:09:01.752Z,71.70
2022-09-13T04:09:34.357Z,71.90
2022-09-13T04:10:08.017Z,71.05
2022-09-13T04:10:42.286Z,71.55
2022-09-13T04:11:15.762Z,71.63
2022-09-13T04:11:47.364Z,70.85
2022-09-13T04:12:19.088Z,71.60
2022-09-13T04:12:52.552Z,72.53
2022-09-13T04:13:24.341Z,71.23
2022-09-13T04:13:55.962Z,70.97
2022-09-13T04:14:28.559Z,70.65
2022-09-13T04:15:00.366Z,71.30
2022-09-13T04:15:32.012Z,71.50
2022-09-13T04:16:05.198Z,70.78
2022-09-13T04:16:36.889Z,70.63
2022-09-13T04:17:09.042Z,71.13
2022-09-13T04:17:43.009Z,71.35
2022-09-13T04:18:14.589Z,70.68
2022-09-13T04:18:46.270Z,71.57
2022-09-13T04:19:18.847Z,70.97
2022-09-13T04:19:50.475Z,71.28
2022-09-13T04:20:23.136Z,70.43
2022-09-13T04:20:55.230Z,71.03
2022-09-13T04:21:27.291Z,71.18
2022-09-13T04:22:00.507Z,69.80
2022-09-13T04:22:32.545Z,70.72
2022-09-13T04:23:04.882Z,70.63
2022-09-13T04:23:38.348Z,69.78
2022-09-13T04:24:09.975Z,70.32
2022-09-13T04:24:43.275Z,70.50
2022-09-13T04:25:16.105Z,71.00
2022-09-13T04:25:47.866Z,69.43
2022-09-13T04:26:19.490Z,72.03
2022-09-13T04:26:53.224Z,70.00
2022-09-13T04:27:25.675Z,70.22
2022-09-13T04:27:58.178Z,69.63
2022-09-13T04:28:30.878Z,69.72
2022-09-13T04:29:02.439Z,69.70
2022-09-13T04:29:34.217Z,70.28
2022-09-13T04:30:07.463Z,69.95
2022-09-13T04:30:42.637Z,70.30
2022-09-13T04:31:14.559Z,70.55
2022-09-13T04:31:47.216Z,70.50
2022-09-13T04:32:18.953Z,69.63
2022-09-13T04:32:52.024Z,69.60
2022-09-13T04:33:25.063Z,70.68
2022-09-13T04:33:56.680Z,70.00
2022-09-13T04:34:28.281Z,69.50
2022-09-13T04:35:00.863Z,69.47
2022-09-13T04:35:32.464Z,70.07
2022-09-13T04:36:04.267Z,69.70
2022-09-13T04:36:37.107Z,70.80
2022-09-13T04:37:09.220Z,69.05
2022-09-13T04:37:41.143Z,69.40
2022-09-13T04:38:13.711Z,69.95
2022-09-13T04:38:46.713Z,69.55
2022-09-13T04:39:18.338Z,70.05
2022-09-13T04:39:50.087Z,69.53
2022-09-13T04:40:23.042Z,69.60
2022-09-13T04:40:55.055Z,70.15
2022-09-13T04:41:26.698Z,70.50
2022-09-13T04:41:59.531Z,69.60
2022-09-13T04:42:31.763Z,69.03
2022-09-13T04:43:04.043Z,71.05
2022-09-13T04:43:36.716Z,70.05
2022-09-13T04:44:08.459Z,69.28
2022-09-13T04:44:40.237Z,69.30
2022-09-13T04:45:12.929Z,69.38
2022-09-13T04:45:44.546Z,70.20
2022-09-13T04:46:16.514Z,69.68
2022-09-13T04:46:49.627Z,69.50
2022-09-13T04:47:21.802Z,70.63
2022-09-13T04:47:56.024Z,69.55
2022-09-13T04:48:28.668Z,69.55
2022-09-13T04:49:00.792Z,70.20
2022-09-13T04:49:32.473Z,70.28
2022-09-13T04:50:05.278Z,69.82
2022-09-13T04:50:36.850Z,70.63
2022-09-13T04:51:08.486Z,69.10
2022-09-13T04:51:41.213Z,69.80
2022-09-13T04:52:12.881Z,69.60
2022-09-13T04:52:44.507Z,69.78
2022-09-13T04:53:17.855Z,69.90
2022-09-13T04:53:52.713Z,69.93
2022-09-13T04:54:24.427Z,69.65
2022-09-13T04:55:00.295Z,70.40
2022-09-13T04:55:31.893Z,70.05
2022-09-13T04:56:03.853Z,69.63
2022-09-13T04:56:36.454Z,69.90
2022-09-13T04:57:08.505Z,70.65
2022-09-13T04:57:40.348Z,69.72
2022-09-13T04:58:12.983Z,69.97
2022-09-13T04:58:44.583Z,70.35
2022-09-13T04:59:16.557Z,70.53
2022-09-13T04:59:49.169Z,69.60
2022-09-13T05:00:20.967Z,70.72
2022-09-13T05:00:56.711Z,69.90
2022-09-13T05:01:28.422Z,70.32
2022-09-13T05:02:01.110Z,69.90
2022-09-13T05:02:33.031Z,69.70
2022-09-13T05:03:06.033Z,71.22
2022-09-13T05:03:38.930Z,69.50
2022-09-13T05:04:10.557Z,70.22
2022-09-13T05:04:42.305Z,69.80
2022-09-13T05:05:15.059Z,70.05
2022-09-13T05:05:46.749Z,69.88
2022-09-13T05:06:19.655Z,70.22
2022-09-13T05:06:51.235Z,69.82
2022-09-13T05:07:22.819Z,69.90
2022-09-13T05:07:55.662Z,69.32
2022-09-13T05:08:27.474Z,70.55
2022-09-13T05:08:59.328Z,69.80
2022-09-13T05:09:31.939Z,69.30
2022-09-13T05:10:03.851Z,69.55
2022-09-13T05:10:35.482Z,70.43
2022-09-13T05:11:08.475Z,69.75
2022-09-13T05:11:40.443Z,70.03
2022-09-13T05:12:13.233Z,69.47
2022-09-13T05:12:44.922Z,70.53
2022-09-13T05:13:16.499Z,69.30
2022-09-13T05:13:52.838Z,70.50
2022-09-13T05:14:25.462Z,70.40
2022-09-13T05:14:57.097Z,69.65
2022-09-13T05:15:28.719Z,70.25
2022-09-13T05:16:02.291Z,71.13
2022-09-13T05:16:34.035Z,69.85
2022-09-13T05:17:05.698Z,70.45
2022-09-13T05:17:38.271Z,69.82
2022-09-13T05:18:11.241Z,70.18
2022-09-13T05:18:45.236Z,69.82
2022-09-13T05:19:18.104Z,69.22
2022-09-13T05:19:49.747Z,70.45
2022-09-13T05:20:21.511Z,70.15
2022-09-13T05:20:55.088Z,69.57
2022-09-13T05:21:27.821Z,69.75
2022-09-13T05:21:59.437Z,70.18
2022-09-13T05:22:32.170Z,69.30
2022-09-13T05:23:03.750Z,69.27
2022-09-13T05:23:35.443Z,69.43
2022-09-13T05:24:08.294Z,70.97
2022-09-13T05:24:40.008Z,69.57
2022-09-13T05:25:11.699Z,69.18
2022-09-13T05:25:44.285Z,69.72
2022-09-13T05:26:15.933Z,70.38
2022-09-13T05:26:48.126Z,70.13
2022-09-13T05:27:20.782Z,70.38
2022-09-13T05:27:52.453Z,69.82
2022-09-13T05:28:24.146Z,69.78
2022-09-13T05:28:56.717Z,69.70
2022-09-13T05:29:28.318Z,69.97
2022-09-13T05:29:59.906Z,69.45
2022-09-13T05:30:32.487Z,69.60
2022-09-13T05:31:05.609Z,69.65
2022-09-13T05:31:40.078Z,69.75
2022-09-13T05:32:11.829Z,69.18
2022-09-13T05:32:43.428Z,70.32
2022-09-13T05:33:17.374Z,69.78
2022-09-13T05:33:52.555Z,69.30
2022-09-13T05:34:25.832Z,70.15
2022-09-13T05:34:57.545Z,68.93
2022-09-13T05:35:29.201Z,69.75
2022-09-13T05:36:01.929Z,69.95
2022-09-13T05:36:33.585Z,70.72
2022-09-13T05:37:05.552Z,70.10
2022-09-13T05:37:38.160Z,69.68
2022-09-13T05:38:09.841Z,69.70
2022-09-13T05:38:41.446Z,70.30
2022-09-13T05:39:43.647Z,70.22
2022-09-13T05:40:11.627Z,70.07
2022-09-13T05:40:45.275Z,69.90
2022-09-13T05:41:16.933Z,70.13
2022-09-13T05:42:09.767Z,70.35
2022-09-13T05:42:44.792Z,70.00
2022-09-13T05:43:17.963Z,69.95
2022-09-13T05:43:59.403Z,69.85
2022-09-13T05:44:34.785Z,70.00
2022-09-13T05:45:07.130Z,70.50
2022-09-13T05:45:38.789Z,70.22
2022-09-13T05:46:12.766Z,70.93
2022-09-13T05:46:46.561Z,70.88
2022-09-13T05:47:19.195Z,70.25
2022-09-13T05:47:51.350Z,71.10
2022-09-13T05:48:24.647Z,70.20
2022-09-13T05:48:58.967Z,70.15
2022-09-13T05:49:30.882Z,71.28
2022-09-13T05:50:10.455Z,70.47
2022-09-13T05:50:57.820Z,70.95
2022-09-13T05:51:30.111Z,71.50
2022-09-13T05:52:02.881Z,70.53
2022-09-13T05:52:34.569Z,70.13
2022-09-13T05:53:06.254Z,70.45
2022-09-13T05:53:41.518Z,70.28
2022-09-13T05:54:13.203Z,71.05
2022-09-13T05:54:44.865Z,70.80
2022-09-13T05:55:18.285Z,70.65
2022-09-13T05:55:49.957Z,70.90
2022-09-13T05:56:22.385Z,70.88
2022-09-13T05:56:57.486Z,70.55
2022-09-13T05:57:29.333Z,70.25
2022-09-13T05:58:04.098Z,71.32
2022-09-13T05:58:40.138Z,71.30
2022-09-13T05:59:12.675Z,70.45
2022-09-13T05:59:44.377Z,70.05
2022-09-13T06:00:18.463Z,70.75
2022-09-13T06:00:52.790Z,70.88
2022-09-13T06:01:27.383Z,70.50
2022-09-13T06:01:59.166Z,70.32
2022-09-13T06:02:32.419Z,71.38
2022-09-13T06:03:07.981Z,69.57
2022-09-13T06:03:41.008Z,71.03
2022-09-13T06:04:14.559Z,70.43
2022-09-13T06:04:46.647Z,70.43
2022-09-13T06:05:18.601Z,69.88
2022-09-13T06:05:52.003Z,70.93
2022-09-13T06:06:24.247Z,70.55
2022-09-13T06:06:55.880Z,71.10
2022-09-13T06:07:28.647Z,70.53
2022-09-13T06:08:00.321Z,70.50
2022-09-13T06:08:33.273Z,70.40
2022-09-13T06:09:08.642Z,71.50
2022-09-13T06:09:40.279Z,70.55
2022-09-13T06:10:12.034Z,70.68
2022-09-13T06:10:44.710Z,70.65
2022-09-13T06:11:16.284Z,70.75
2022-09-13T06:11:47.889Z,69.95
2022-09-13T06:12:21.726Z,70.85
2022-09-13T06:12:53.353Z,70.53
2022-09-13T06:13:26.333Z,70.97
2022-09-13T06:14:00.350Z,70.40
2022-09-13T06:14:33.048Z,70.65
2022-09-13T06:15:04.945Z,71.13
2022-09-13T06:15:39.041Z,70.78
2022-09-13T06:16:16.182Z,71.10
2022-09-13T06:16:47.956Z,70.38
2022-09-13T06:17:19.577Z,69.63
2022-09-13T06:17:52.316Z,70.43
2022-09-13T06:18:24.831Z,70.05
2022-09-13T06:18:59.031Z,71.03
2022-09-13T06:19:30.662Z,70.60
2022-09-13T06:20:02.665Z,71.15
2022-09-13T06:20:35.224Z,72.10
2022-09-13T06:21:08.081Z,71.78
2022-09-13T06:21:40.691Z,70.80
2022-09-13T06:22:12.355Z,70.80
2022-09-13T06:22:43.941Z,70.60
2022-09-13T06:23:16.790Z,71.63
2022-09-13T06:23:49.514Z,71.05
2022-09-13T06:24:22.138Z,72.10
2022-09-13T06:24:53.824Z,71.55
2022-09-13T06:25:25.464Z,70.65
2022-09-13T06:26:08.013Z,71.30
2022-09-13T06:26:39.712Z,71.07
2022-09-13T06:27:11.495Z,71.13
2022-09-13T06:27:44.121Z,71.07
2022-09-13T06:28:19.887Z,71.60
2022-09-13T06:28:53.784Z,70.72
2022-09-13T06:29:27.639Z,70.75
2022-09-13T06:29:59.239Z,71.75
2022-09-13T06:30:30.969Z,70.93
2022-09-13T06:31:06.771Z,71.20
2022-09-13T06:31:43.679Z,70.68
2022-09-13T06:32:15.578Z,70.07
2022-09-13T06:32:48.187Z,71.65
2022-09-13T06:33:19.808Z,71.38
2022-09-13T06:33:55.372Z,71.38
2022-09-13T06:34:31.251Z,71.90
2022-09-13T06:35:03.256Z,70.55
2022-09-13T06:35:35.958Z,71.32
2022-09-13T06:36:09.305Z,72.28
2022-09-13T06:36:41.237Z,71.65
2022-09-13T06:37:14.229Z,70.40
2022-09-13T06:37:45.870Z,70.80
2022-09-13T06:38:19.310Z,70.60
2022-09-13T06:38:52.213Z,71.40
2022-09-13T06:39:24.017Z,72.85
2022-09-13T06:39:55.749Z,71.15
2022-09-13T06:40:31.184Z,70.90
2022-09-13T06:41:18.595Z,70.93
2022-09-13T06:41:57.841Z,71.00
2022-09-13T06:42:43.808Z,70.65
2022-09-13T06:43:15.830Z,70.82
2022-09-13T06:43:53.272Z,72.15
2022-09-13T06:44:25.242Z,70.68
2022-09-13T06:44:57.877Z,70.28
2022-09-13T06:45:29.866Z,71.05
2022-09-13T06:46:02.111Z,70.67
2022-09-13T06:46:35.684Z,70.18
2022-09-13T06:47:07.459Z,70.43
2022-09-13T06:47:39.081Z,71.43
2022-09-13T06:48:11.691Z,71.43
2022-09-13T06:48:43.851Z,70.18
2022-09-13T06:49:16.536Z,70.60
2022-09-13T06:49:49.588Z,71.20
2022-09-13T06:50:21.238Z,71.93
2022-09-13T06:50:53.860Z,70.72
2022-09-13T06:51:25.929Z,70.53
2022-09-13T06:51:57.603Z,70.65
2022-09-13T06:52:30.277Z,70.50
2022-09-13T06:53:02.048Z,70.45
2022-09-13T06:53:34.792Z,70.20
2022-09-13T06:54:07.374Z,70.53
2022-09-13T06:54:39.466Z,70.15
2022-09-13T06:55:12.861Z,70.55
2022-09-13T06:55:45.576Z,70.20
2022-09-13T06:56:19.302Z,71.07
2022-09-13T06:56:50.910Z,71.20
2022-09-13T06:57:23.573Z,72.03
2022-09-13T06:57:55.225Z,70.38
2022-09-13T06:58:28.115Z,71.47
2022-09-13T06:59:01.720Z,70.43
2022-09-13T06:59:34.952Z,71.03
2022-09-13T07:00:07.363Z,70.53
2022-09-13T07:00:40.115Z,70.78
2022-09-13T07:01:12.819Z,69.97
2022-09-13T07:01:45.131Z,71.33
2022-09-13T07:02:17.832Z,70.28
2022-09-13T07:02:50.838Z,70.45
2022-09-13T07:03:22.516Z,69.90
2022-09-13T07:03:55.988Z,70.47
2022-09-13T07:04:31.520Z,70.78
2022-09-13T07:05:05.818Z,70.18
2022-09-13T07:05:37.514Z,70.15
2022-09-13T07:06:10.377Z,70.65
2022-09-13T07:06:43.737Z,70.43
2022-09-13T07:07:15.455Z,71.10
2022-09-13T07:07:48.418Z,70.22
2022-09-13T07:08:20.053Z,70.20
2022-09-13T07:08:52.119Z,71.60
2022-09-13T07:09:25.098Z,70.78
2022-09-13T07:09:56.764Z,70.55
2022-09-13T07:10:28.468Z,70.88
2022-09-13T07:11:00.304Z,71.10
2022-09-13T07:11:34.188Z,70.20
2022-09-13T07:12:06.405Z,70.78
2022-09-13T07:12:40.204Z,69.90
2022-09-13T07:13:12.868Z,70.72
2022-09-13T07:13:47.766Z,70.45
2022-09-13T07:14:21.737Z,70.78
2022-09-13T07:14:53.857Z,70.50
2022-09-13T07:15:26.436Z,70.95
2022-09-13T07:16:00.955Z,69.97
2022-09-13T07:16:34.012Z,73.22
2022-09-13T07:17:06.607Z,70.15
2022-09-13T07:17:38.335Z,70.47
2022-09-13T07:18:09.920Z,70.75
2022-09-13T07:18:42.577Z,70.63
2022-09-13T07:19:15.516Z,70.75